Terminal Aerodrome Forecast
Issued by NWS

Home | Current Version | Previous Version | Text Only | Print | Product List | Glossary On
Versions: 1 2 3 4 5 6 7 8 9 10 11 12 13 14 15
000
FTUS45 KREV 230500
TAFMMH
TAF
KMMH 230523Z 2306/2406 VRB04KT P6SM SCT180
     FM231700 11008KT P6SM SCT090 BKN180
     FM232200 25009G17KT P6SM SCT080 BKN160
     FM240200 30008G16KT P6SM SCT060 BKN140
      AMD NOT SKED 2306/2314=

USA.gov is the U.S. government's official web portal to all federal, state and local government web resources and services.